Time;durP1;ratioP1;P1;durP2;ratioP2;P2;SDS_P1;SDS_P2;PMS_P1;PMS_P2;Temp;Humidity;BMP_temperature;BMP_pressure;BME280_temperature;BME280_humidity;BME280_pressure;Samples;Min_cycle;Max_cycle;Signal;HPM_P1;HPM_P2
2022/03/04 00:01:46;;;;;;;5.75;2.75;;;;;;;4.25;55.37;102061.06;5052813;27;117367;-35
2022/03/04 00:04:15;;;;;;;2.58;1.83;;;;;;;4.18;56.59;102045.13;5035955;27;96953;-35
2022/03/04 00:06:41;;;;;;;5.82;3.03;;;;;;;4.18;55.44;102053.16;5035190;27;99923;-35
2022/03/04 00:09:06;;;;;;;9.63;3.13;;;;;;;4.10;55.43;102052.38;5053726;27;97868;-35
2022/03/04 00:11:32;;;;;;;7.13;3.55;;;;;;;4.15;56.33;102055.91;5052437;27;121849;-35
2022/03/04 00:13:58;;;;;;;7.03;3.00;;;;;;;4.13;56.67;102063.97;5034322;27;96869;-35
2022/03/04 00:16:24;;;;;;;8.82;4.38;;;;;;;4.13;55.84;102065.75;5053786;27;101599;-35
2022/03/04 00:19:06;;;;;;;6.07;3.63;;;;;;;4.03;56.29;102060.53;5053608;27;98926;-35
2022/03/04 00:21:41;;;;;;;6.78;2.47;;;;;;;4.02;56.67;102069.47;5035545;27;96727;-35
2022/03/04 00:24:08;;;;;;;4.63;3.50;;;;;;;4.05;56.53;102081.94;5035246;27;96855;-35
2022/03/04 00:26:34;;;;;;;5.03;3.17;;;;;;;4.04;56.30;102074.81;5035063;27;100826;-35
2022/03/04 00:28:59;;;;;;;6.55;3.95;;;;;;;4.00;56.37;102067.72;5035437;27;101185;-35
2022/03/04 00:31:25;;;;;;;6.70;4.10;;;;;;;4.01;56.07;102069.50;5053298;27;96478;-35
2022/03/04 00:33:51;;;;;;;8.60;3.30;;;;;;;3.98;56.86;102078.47;5053157;27;108509;-35
2022/03/04 00:36:16;;;;;;;7.18;3.60;;;;;;;3.92;56.97;102070.50;5053064;27;98014;-35
2022/03/04 00:38:42;;;;;;;6.70;3.42;;;;;;;3.91;56.88;102073.19;5053225;27;98752;-35
2022/03/04 00:41:07;;;;;;;10.23;4.40;;;;;;;3.89;56.96;102061.66;5052347;27;121136;-35
2022/03/04 00:43:33;;;;;;;5.90;2.83;;;;;;;3.85;57.02;102062.59;5052498;27;117272;-35
2022/03/04 00:45:58;;;;;;;7.10;3.03;;;;;;;3.84;57.01;102067.06;5053360;27;98048;-35
2022/03/04 00:48:23;;;;;;;6.25;3.08;;;;;;;3.85;56.81;102070.63;5053205;27;97302;-35
2022/03/04 00:50:49;;;;;;;6.43;3.15;;;;;;;3.80;57.64;102071.56;5053257;27;96585;-35
2022/03/04 00:53:14;;;;;;;3.55;1.80;;;;;;;3.78;57.71;102080.53;5052819;27;121739;-35
2022/03/04 00:55:39;;;;;;;6.68;2.88;;;;;;;3.73;57.59;102072.56;5052281;27;121356;-34
2022/03/04 00:58:08;;;;;;;3.80;2.22;;;;;;;3.67;57.21;102086.06;5052607;27;112420;-35
2022/03/04 01:00:35;;;;;;;4.82;2.70;;;;;;;3.59;57.64;102074.53;5034028;27;97048;-35
2022/03/04 01:03:02;;;;;;;5.03;3.00;;;;;;;3.59;57.80;102080.78;5034742;27;97258;-35
2022/03/04 01:05:28;;;;;;;7.05;3.35;;;;;;;3.60;57.30;102079.88;5034426;27;101086;-35
2022/03/04 01:07:53;;;;;;;5.05;3.28;;;;;;;3.56;58.20;102079.94;5035999;27;97791;-35
2022/03/04 01:10:18;;;;;;;4.72;2.47;;;;;;;3.50;58.32;102080.88;5032886;28;96462;-35
2022/03/04 01:12:45;;;;;;;5.95;2.95;;;;;;;3.52;57.86;102080.88;5032806;28;96745;-35
2022/03/04 01:15:11;;;;;;;5.78;3.13;;;;;;;3.49;58.13;102076.44;5014213;28;100837;-35
2022/03/04 01:17:45;;;;;;;9.32;2.38;;;;;;;3.42;57.22;102069.38;5033036;28;97824;-35
2022/03/04 01:20:11;;;;;;;4.80;2.90;;;;;;;3.49;58.46;102075.56;5031818;28;117138;-35
2022/03/04 01:22:36;;;;;;;3.38;2.08;;;;;;;3.38;58.50;102073.91;5032738;28;96896;-35
2022/03/04 01:25:02;;;;;;;4.63;2.88;;;;;;;3.38;58.22;102078.34;5030631;27;126436;-35
2022/03/04 01:27:28;;;;;;;4.75;3.45;;;;;;;3.36;58.92;102077.47;5013760;28;101020;-35
2022/03/04 01:29:54;;;;;;;7.03;3.45;;;;;;;3.34;59.16;102071.28;5014064;28;96561;-35
2022/03/04 01:32:19;;;;;;;5.72;2.83;;;;;;;3.29;58.59;102065.97;5032253;28;96815;-35
2022/03/04 01:34:44;;;;;;;4.20;2.83;;;;;;;3.36;58.75;102077.47;5032430;28;97332;-35
2022/03/04 01:37:10;;;;;;;6.20;3.28;;;;;;;3.29;58.27;102065.97;5031242;28;126711;-35
2022/03/04 01:39:35;;;;;;;11.50;4.45;;;;;;;3.34;58.67;102071.28;5032155;28;102816;-34
2022/03/04 01:42:01;;;;;;;6.53;4.53;;;;;;;3.33;58.72;102070.38;5032615;28;96746;-35
2022/03/04 01:44:26;;;;;;;4.65;3.03;;;;;;;3.27;58.20;102070.47;5032334;28;97861;-34
2022/03/04 01:46:52;;;;;;;5.50;2.60;;;;;;;3.19;58.68;102070.56;5013773;28;99290;-35
2022/03/04 01:49:17;;;;;;;3.58;2.63;;;;;;;3.19;59.80;102073.25;5013650;28;96624;-35
2022/03/04 01:51:42;;;;;;;9.90;3.70;;;;;;;3.12;59.19;102070.63;5031194;28;122380;-35
2022/03/04 01:54:08;;;;;;;10.45;2.90;;;;;;;3.14;59.25;102076.84;5031971;28;97876;-35
2022/03/04 01:56:33;;;;;;;6.18;3.28;;;;;;;3.19;58.92;102077.69;5031817;28;97872;-35
2022/03/04 01:58:59;;;;;;;8.50;3.50;;;;;;;3.08;58.52;102060.88;5032239;28;96605;-35
2022/03/04 02:01:25;;;;;;;4.85;2.33;;;;;;;3.05;59.19;102060.88;5013845;28;97063;-35
2022/03/04 02:03:50;;;;;;;5.82;3.35;;;;;;;3.03;59.07;102060.94;5013655;28;101251;-35
2022/03/04 02:06:16;;;;;;;4.57;3.13;;;;;;;3.08;58.73;102064.44;5034452;27;115390;-35
2022/03/04 02:08:41;;;;;;;5.57;3.03;;;;;;;3.01;58.81;102059.16;5052235;27;96602;-35
2022/03/04 02:11:07;;;;;;;8.00;3.88;;;;;;;2.94;58.99;102056.53;5051888;27;96888;-35
2022/03/04 02:13:32;;;;;;;4.32;2.22;;;;;;;2.97;59.41;102067.22;5051641;27;98001;-35
2022/03/04 02:15:58;;;;;;;4.88;2.97;;;;;;;2.92;58.81;102062.81;5033477;27;100766;-35
2022/03/04 02:18:26;;;;;;;4.55;3.33;;;;;;;2.86;59.62;102063.78;5052151;27;96540;-35
2022/03/04 02:20:52;;;;;;;6.78;4.00;;;;;;;2.85;59.93;102067.34;5051934;27;104336;-35
2022/03/04 02:23:19;;;;;;;5.07;2.75;;;;;;;2.91;59.41;102074.44;5051871;27;97631;-35
2022/03/04 02:25:48;;;;;;;5.85;3.53;;;;;;;2.89;60.04;102063.75;5033163;27;100819;-35
2022/03/04 02:28:14;;;;;;;3.80;2.13;;;;;;;2.90;59.94;102065.50;5033684;27;96603;-35
2022/03/04 02:30:39;;;;;;;6.70;3.15;;;;;;;2.90;59.47;102065.50;5033860;27;96809;-35
2022/03/04 02:33:06;;;;;;;3.58;1.77;;;;;;;2.85;60.01;102059.31;5051840;27;100218;-35
2022/03/04 02:35:32;;;;;;;5.07;2.72;;;;;;;2.87;59.79;102057.50;5033340;27;101267;-35
2022/03/04 02:37:57;;;;;;;6.40;3.00;;;;;;;2.84;59.40;102054.88;5035742;27;97015;-35
2022/03/04 02:40:23;;;;;;;2.38;2.17;;;;;;;2.83;59.24;102054.88;5055225;27;96772;-35
2022/03/04 02:42:48;;;;;;;2.20;1.73;;;;;;;2.73;60.10;102040.72;5055547;27;97294;-35
2022/03/04 02:45:13;;;;;;;4.93;2.85;;;;;;;2.71;59.71;102039.84;5055159;27;102289;-35
2022/03/04 02:47:39;;;;;;;5.05;2.75;;;;;;;2.71;59.99;102039.84;5055329;27;96608;-35
2022/03/04 02:50:05;;;;;;;9.20;4.13;;;;;;;2.72;60.00;102030.91;5054297;27;121335;-35
2022/03/04 02:52:30;;;;;;;4.15;2.78;;;;;;;2.70;59.29;102036.28;5055294;27;97361;-35
2022/03/04 02:54:55;;;;;;;4.55;2.45;;;;;;;2.66;59.49;102031.84;5054762;27;115792;-35
2022/03/04 02:57:20;;;;;;;5.00;2.88;;;;;;;2.63;61.49;102033.69;5054541;27;115644;-35
2022/03/04 02:59:46;;;;;;;1.85;1.73;;;;;;;2.61;59.95;102048.84;5055306;27;96800;-35
2022/03/04 03:02:11;;;;;;;7.32;2.95;;;;;;;2.60;60.49;102047.97;5053377;27;126992;-35
2022/03/04 03:04:36;;;;;;;6.07;4.43;;;;;;;2.61;61.44;102056.88;5054458;27;112277;-35
2022/03/04 03:07:02;;;;;;;8.93;3.30;;;;;;;2.58;61.33;102060.47;5045332;27;96559;-35
2022/03/04 03:09:27;;;;;;;3.55;2.53;;;;;;;2.49;60.01;102048.06;5034586;28;96691;-35
2022/03/04 03:11:52;;;;;;;4.18;2.75;;;;;;;2.45;61.41;102035.59;5034220;28;105945;-35
2022/03/04 03:14:17;;;;;;;5.63;2.42;;;;;;;2.46;61.09;102042.75;5034128;28;108393;-35
2022/03/04 03:16:43;;;;;;;4.45;2.85;;;;;;;2.45;61.92;102042.75;5033977;28;115286;-35
2022/03/04 03:19:08;;;;;;;6.07;3.35;;;;;;;2.44;61.04;102049.00;5034942;28;96721;-35
2022/03/04 03:21:34;;;;;;;3.25;1.70;;;;;;;2.32;62.03;102029.50;5034480;28;97845;-35
2022/03/04 03:23:59;;;;;;;7.53;3.33;;;;;;;2.38;61.72;102039.22;5034107;28;97643;-35
2022/03/04 03:26:24;;;;;;;6.53;4.15;;;;;;;2.36;60.87;102038.38;5033516;28;99543;-34
2022/03/04 03:28:50;;;;;;;3.92;2.47;;;;;;;2.33;61.96;102046.41;5034540;28;96806;-35
2022/03/04 03:31:15;;;;;;;6.68;3.00;;;;;;;2.29;61.96;102048.22;5033970;28;98033;-35
2022/03/04 03:33:43;;;;;;;7.63;3.35;;;;;;;2.31;61.93;102049.13;5034183;28;97290;-35
2022/03/04 03:36:08;;;;;;;6.28;3.75;;;;;;;2.25;62.19;102048.25;5034216;28;96451;-35
2022/03/04 03:38:33;;;;;;;7.32;2.95;;;;;;;2.25;62.53;102046.47;5034107;28;96816;-35
2022/03/04 03:40:59;;;;;;;8.82;3.55;;;;;;;2.19;61.43;102040.28;5034038;28;97945;-34
2022/03/04 03:43:24;;;;;;;3.42;2.60;;;;;;;2.20;61.92;102045.63;5033466;28;126476;-34
2022/03/04 03:45:49;;;;;;;5.43;3.70;;;;;;;2.18;61.38;102042.06;5033063;28;122243;-35
2022/03/04 03:48:15;;;;;;;3.53;2.50;;;;;;;2.15;61.74;102049.25;5033094;27;121354;-35
2022/03/04 03:50:40;;;;;;;3.88;2.10;;;;;;;2.07;62.33;102042.16;5033229;28;99173;-35
2022/03/04 03:53:06;;;;;;;5.05;3.65;;;;;;;2.09;62.20;102045.69;5033965;28;97940;-35
2022/03/04 03:55:31;;;;;;;4.40;3.53;;;;;;;2.07;62.21;102057.28;5033797;28;96598;-35
2022/03/04 03:57:57;;;;;;;5.35;3.42;;;;;;;2.05;61.93;102043.06;5033958;28;96760;-35
2022/03/04 04:00:22;;;;;;;5.68;2.65;;;;;;;1.99;62.21;102046.66;5033682;28;97920;-35
2022/03/04 04:02:47;;;;;;;6.18;3.00;;;;;;;1.99;62.95;102056.47;5032903;28;121228;-35
2022/03/04 04:05:12;;;;;;;4.90;2.05;;;;;;;2.00;61.99;102061.81;5015500;28;96490;-35
2022/03/04 04:07:38;;;;;;;8.25;4.07;;;;;;;1.99;62.33;102059.16;5048171;27;96824;-35
2022/03/04 04:10:05;;;;;;;7.80;3.65;;;;;;;1.96;62.18;102061.84;5035213;27;100847;-35
2022/03/04 04:12:30;;;;;;;7.05;4.55;;;;;;;1.85;62.32;102052.09;5035375;27;101483;-35
2022/03/04 04:14:55;;;;;;;4.10;2.47;;;;;;;1.80;63.47;102061.03;5053799;27;96448;-35
2022/03/04 04:17:21;;;;;;;2.97;2.15;;;;;;;1.90;63.63;102076.09;5053997;27;96744;-35
2022/03/04 04:19:46;;;;;;;5.97;3.17;;;;;;;1.84;63.49;102068.16;5053163;27;117428;-35
2022/03/04 04:22:11;;;;;;;9.77;4.35;;;;;;;1.80;63.35;102063.72;5053681;27;102982;-35
2022/03/04 04:24:37;;;;;;;2.25;1.85;;;;;;;1.79;64.09;102077.94;5053807;27;96595;-35
2022/03/04 04:27:02;;;;;;;4.30;2.10;;;;;;;1.87;63.59;102078.81;5053946;27;96744;-35
2022/03/04 04:29:31;;;;;;;2.33;1.63;;;;;;;1.82;63.23;102070.81;5053331;27;98865;-35
2022/03/04 04:31:56;;;;;;;6.00;3.10;;;;;;;1.78;62.88;102073.50;5053982;27;97338;-35
2022/03/04 04:34:21;;;;;;;10.73;4.93;;;;;;;1.77;63.03;102077.97;5053826;27;96634;-35
2022/03/04 04:36:47;;;;;;;7.47;2.55;;;;;;;1.77;63.22;102080.63;5035212;27;96797;-35
2022/03/04 04:39:12;;;;;;;1.75;1.25;;;;;;;1.69;63.61;102085.13;5052151;27;120931;-35
2022/03/04 04:41:37;;;;;;;7.35;2.38;;;;;;;1.68;63.79;102080.69;5053501;27;97672;-35
2022/03/04 04:44:03;;;;;;;5.82;2.08;;;;;;;1.63;64.74;102075.38;5035013;27;96617;-35
2022/03/04 04:46:28;;;;;;;3.90;2.00;;;;;;;1.64;64.15;102073.56;5053320;27;96825;-35
2022/03/04 04:48:53;;;;;;;2.65;1.80;;;;;;;1.63;64.69;102075.38;5053215;27;99232;-35
2022/03/04 04:51:19;;;;;;;3.05;2.05;;;;;;;1.64;64.14;102084.25;5052661;27;115176;-35
2022/03/04 04:53:44;;;;;;;2.60;1.95;;;;;;;1.59;64.28;102068.25;5053061;27;96614;-35
2022/03/04 04:56:10;;;;;;;2.35;1.70;;;;;;;1.63;64.24;102083.38;5053788;27;96756;-35
2022/03/04 04:58:35;;;;;;;2.47;1.65;;;;;;;1.63;63.78;102072.69;5053391;27;97399;-35
2022/03/04 05:01:01;;;;;;;9.40;3.55;;;;;;;1.62;64.44;102081.63;5051909;27;113029;-35
2022/03/04 05:03:27;;;;;;;7.75;3.92;;;;;;;1.59;64.07;102073.59;5034183;27;96629;-35
2022/03/04 05:05:53;;;;;;;4.38;3.25;;;;;;;1.60;63.20;102077.19;5017929;27;96790;-35
2022/03/04 05:08:19;;;;;;;4.40;2.60;;;;;;;1.56;64.01;102083.41;5034195;27;100917;-35
2022/03/04 05:10:44;;;;;;;3.45;2.08;;;;;;;1.54;64.70;102080.75;5034510;27;100305;-35
2022/03/04 05:13:11;;;;;;;4.50;1.70;;;;;;;1.51;63.30;102091.44;5053139;27;96643;-35
2022/03/04 05:15:36;;;;;;;0.25;0.20;;;;;;;1.42;64.12;102081.69;5034623;27;96858;-35
2022/03/04 05:18:02;;;;;;;9.73;2.35;;;;;;;1.42;65.12;102083.47;5052740;27;99332;-35
2022/03/04 05:20:28;;;;;;;8.75;2.78;;;;;;;1.42;64.34;102083.47;5053182;27;97396;-35
2022/03/04 05:22:53;;;;;;;2.88;1.83;;;;;;;1.44;63.78;102079.00;5052903;27;96554;-35
2022/03/04 05:25:19;;;;;;;2.15;1.52;;;;;;;1.39;64.29;102076.34;5017639;27;96791;-35
2022/03/04 05:27:45;;;;;;;2.58;1.80;;;;;;;1.44;64.33;102095.03;5033876;27;100935;-35
2022/03/04 05:30:11;;;;;;;3.80;2.33;;;;;;;1.35;64.90;102079.91;5033939;27;100860;-35
2022/03/04 05:32:36;;;;;;;5.85;3.95;;;;;;;1.37;63.69;102087.94;5034267;27;96833;-35
2022/03/04 05:35:02;;;;;;;6.65;3.65;;;;;;;1.36;65.31;102080.81;5051734;27;121681;-35
2022/03/04 05:37:27;;;;;;;7.35;3.58;;;;;;;1.32;64.24;102087.94;5052139;27;100756;-35
2022/03/04 05:39:53;;;;;;;5.13;2.88;;;;;;;1.34;64.31;102101.31;5051633;27;125260;-35
2022/03/04 05:42:19;;;;;;;3.50;2.83;;;;;;;1.28;64.72;102083.50;5034262;27;96624;-35
2022/03/04 05:44:44;;;;;;;1.98;1.15;;;;;;;1.29;65.50;102085.31;5052974;27;96737;-35
2022/03/04 05:47:10;;;;;;;6.38;2.75;;;;;;;1.26;65.22;102080.88;5051534;27;124271;-35
2022/03/04 05:49:35;;;;;;;3.63;2.30;;;;;;;1.34;64.81;102093.28;5052158;27;98337;-35
2022/03/04 05:52:01;;;;;;;1.20;1.08;;;;;;;1.32;65.04;102089.75;5051841;27;96738;-35
2022/03/04 05:54:26;;;;;;;4.32;2.95;;;;;;;1.27;64.54;102081.75;5052477;27;96748;-35
2022/03/04 05:56:52;;;;;;;7.75;4.13;;;;;;;1.28;64.88;102087.06;5052361;27;98427;-34
2022/03/04 05:59:17;;;;;;;6.03;2.47;;;;;;;1.22;64.81;102086.22;5051550;27;122154;-35
2022/03/04 06:01:42;;;;;;;5.28;3.20;;;;;;;1.30;65.60;102112.88;5051595;27;109837;-35
2022/03/04 06:04:07;;;;;;;3.50;1.63;;;;;;;1.25;65.76;102097.75;5052206;27;96917;-34
2022/03/04 06:06:33;;;;;;;3.88;2.35;;;;;;;1.32;65.25;102111.09;5045836;27;113145;-35
2022/03/04 06:08:58;;;;;;;3.17;2.42;;;;;;;1.30;65.11;102099.53;5031871;28;97220;-35
2022/03/04 06:11:24;;;;;;;5.40;3.05;;;;;;;1.40;65.56;102111.94;5032271;27;96795;-35
2022/03/04 06:13:50;;;;;;;5.18;2.17;;;;;;;1.33;64.72;102099.50;5035813;28;96701;-35
2022/03/04 06:16:15;;;;;;;4.75;2.45;;;;;;;1.24;64.87;102096.00;5034146;28;124273;-35
2022/03/04 06:18:40;;;;;;;4.35;2.75;;;;;;;1.30;64.97;102104.88;5035181;28;99634;-35
2022/03/04 06:21:05;;;;;;;3.50;2.35;;;;;;;1.27;64.97;102111.97;5034455;28;117182;-35
2022/03/04 06:23:31;;;;;;;4.63;1.88;;;;;;;1.28;65.22;102126.22;5035298;28;96776;-35
2022/03/04 06:25:58;;;;;;;3.10;1.77;;;;;;;1.19;65.64;102111.13;5035298;28;97860;-35
2022/03/04 06:28:25;;;;;;;5.63;3.15;;;;;;;1.13;66.21;102104.91;5016769;28;99261;-35
2022/03/04 06:30:51;;;;;;;12.98;4.05;;;;;;;1.14;65.40;102123.56;5035002;28;96535;-35
2022/03/04 06:33:36;;;;;;;7.95;3.78;;;;;;;1.18;64.88;102133.34;5035749;28;96728;-35
2022/03/04 06:36:07;;;;;;;6.03;2.15;;;;;;;1.15;65.83;102127.16;5035364;28;98406;-35
2022/03/04 06:38:35;;;;;;;3.37;2.90;;;;;;;1.17;65.00;102125.34;5016664;28;101327;-35
2022/03/04 06:41:01;;;;;;;4.93;2.72;;;;;;;1.14;65.49;102117.34;5016357;28;97173;-35
2022/03/04 06:43:26;;;;;;;3.58;2.15;;;;;;;1.16;65.86;102121.78;5035227;28;96782;-35
2022/03/04 06:45:52;;;;;;;16.38;3.50;;;;;;;1.22;65.74;102139.59;5034897;28;97840;-34
2022/03/04 06:48:18;;;;;;;5.38;2.92;;;;;;;1.25;65.93;102135.13;5016259;28;100880;-35
2022/03/04 06:50:44;;;;;;;9.50;3.22;;;;;;;1.21;65.22;102133.34;5034613;28;96651;-35
2022/03/04 06:53:10;;;;;;;3.88;1.10;;;;;;;1.17;66.10;102149.34;5016648;28;96763;-35
2022/03/04 06:55:35;;;;;;;2.50;1.88;;;;;;;1.22;64.90;102153.81;5034811;28;97482;-35
2022/03/04 06:58:00;;;;;;;2.17;1.98;;;;;;;1.23;65.73;102141.34;5034803;28;109754;-35
2022/03/04 07:00:27;;;;;;;6.03;3.33;;;;;;;1.24;65.36;102145.78;5034697;28;96557;-35
2022/03/04 07:02:54;;;;;;;1.63;1.45;;;;;;;1.27;65.03;102146.69;5034807;28;96798;-35
2022/03/04 07:05:23;;;;;;;3.53;2.55;;;;;;;1.26;65.12;102146.66;5015956;28;101287;-35
2022/03/04 07:07:49;;;;;;;7.43;4.75;;;;;;;1.25;66.34;102147.56;5028150;28;100849;-35
2022/03/04 07:10:15;;;;;;;6.30;2.90;;;;;;;1.30;66.35;102156.47;5033305;28;96641;-35
2022/03/04 07:12:40;;;;;;;5.60;3.90;;;;;;;1.35;64.79;102156.44;5034733;28;96727;-35
2022/03/04 07:15:07;;;;;;;2.95;2.47;;;;;;;1.37;64.00;102150.22;5034494;28;97656;-35
2022/03/04 07:17:32;;;;;;;5.15;3.83;;;;;;;1.36;64.96;102159.13;5033029;28;100966;-35
2022/03/04 07:19:58;;;;;;;5.72;3.17;;;;;;;1.34;65.76;102162.69;5034676;28;96575;-35
2022/03/04 07:22:23;;;;;;;8.00;4.53;;;;;;;1.42;64.85;102171.56;5034661;27;96788;-35
2022/03/04 07:24:48;;;;;;;8.65;3.88;;;;;;;1.43;64.79;102171.56;5033243;28;126580;-35
2022/03/04 07:27:14;;;;;;;3.65;3.03;;;;;;;1.45;65.36;102161.78;5033979;28;105792;-35
2022/03/04 07:29:39;;;;;;;8.52;4.05;;;;;;;1.54;65.28;102176.88;5033408;28;104917;-35
2022/03/04 07:32:05;;;;;;;5.28;3.10;;;;;;;1.62;64.33;102180.41;5034187;27;96887;-35
2022/03/04 07:34:30;;;;;;;6.38;4.60;;;;;;;1.63;64.73;102166.16;5033927;27;99544;-35
2022/03/04 07:36:55;;;;;;;6.25;3.47;;;;;;;1.74;64.83;102168.81;5033160;28;127272;-35
2022/03/04 07:39:21;;;;;;;1.85;1.70;;;;;;;1.82;64.81;102166.97;5034303;27;96849;-35
2022/03/04 07:41:48;;;;;;;5.75;2.75;;;;;;;1.90;64.58;102161.59;5034207;28;96669;-35
2022/03/04 07:44:14;;;;;;;7.85;4.25;;;;;;;2.06;63.74;102178.47;5032636;28;101349;-35
2022/03/04 07:46:40;;;;;;;5.15;2.85;;;;;;;2.20;64.19;102175.72;5034499;27;97309;-35
2022/03/04 07:49:05;;;;;;;6.40;2.42;;;;;;;2.33;64.42;102174.72;5032658;28;96580;-35
2022/03/04 07:51:31;;;;;;;3.00;2.00;;;;;;;2.47;63.44;102167.50;5034138;28;96899;-35
2022/03/04 07:53:56;;;;;;;3.00;2.70;;;;;;;2.46;63.61;102159.53;5033564;28;98059;-35
2022/03/04 07:56:22;;;;;;;7.22;2.33;;;;;;;2.61;63.19;102175.44;5033869;28;97842;-35
2022/03/04 07:58:47;;;;;;;8.75;4.35;;;;;;;2.59;62.92;102161.19;5034072;27;96412;-35
2022/03/04 08:01:12;;;;;;;3.92;2.63;;;;;;;2.68;63.20;102169.16;5033598;27;96841;-35
2022/03/04 08:03:38;;;;;;;5.32;3.08;;;;;;;2.76;63.58;102174.44;5033752;28;97852;-35
2022/03/04 08:06:03;;;;;;;4.68;1.83;;;;;;;2.82;63.24;102171.72;5034149;27;99098;-34
2022/03/04 08:08:29;;;;;;;3.55;2.70;;;;;;;2.86;62.72;102176.16;5054030;27;96712;-35
2022/03/04 08:10:54;;;;;;;2.88;1.58;;;;;;;2.96;63.15;102183.19;5053741;27;113918;-35
2022/03/04 08:13:20;;;;;;;5.28;2.08;;;;;;;2.96;62.99;102188.56;5053629;27;106147;-35
2022/03/04 08:15:45;;;;;;;2.33;1.58;;;;;;;2.98;63.07;102194.78;5035273;27;100464;-35
2022/03/04 08:18:11;;;;;;;9.23;3.58;;;;;;;3.00;62.40;102183.16;5052786;27;112440;-35
2022/03/04 08:20:37;;;;;;;2.75;2.30;;;;;;;2.96;62.59;102177.84;5053621;27;96606;-35
2022/03/04 08:23:03;;;;;;;9.70;2.63;;;;;;;2.96;62.70;102185.00;5035231;27;100919;-35
2022/03/04 08:25:28;;;;;;;2.22;1.40;;;;;;;3.07;63.13;102203.63;5053277;27;111835;-34
2022/03/04 08:27:53;;;;;;;7.72;2.75;;;;;;;3.09;62.64;102192.00;5053014;27;118323;-35
2022/03/04 08:30:18;;;;;;;5.35;2.20;;;;;;;3.07;62.81;102198.28;5053255;27;96759;-35
2022/03/04 08:32:44;;;;;;;6.03;2.05;;;;;;;3.16;62.54;102192.84;5052675;27;125292;-35
2022/03/04 08:35:10;;;;;;;7.82;3.33;;;;;;;3.26;62.24;102199.88;5052912;27;97720;-34
2022/03/04 08:37:35;;;;;;;3.35;2.38;;;;;;;3.18;62.56;102194.59;5053647;27;96538;-35
2022/03/04 08:40:02;;;;;;;3.35;2.10;;;;;;;3.22;62.76;102190.13;5053604;27;96644;-35
2022/03/04 08:42:27;;;;;;;8.68;3.38;;;;;;;3.33;62.90;102198.91;5034442;27;101202;-34
2022/03/04 08:44:54;;;;;;;8.75;4.18;;;;;;;3.36;62.28;102195.31;5053332;27;97880;-35
2022/03/04 08:47:19;;;;;;;5.50;2.85;;;;;;;3.43;62.13;102196.16;5053258;27;96533;-35
2022/03/04 08:49:45;;;;;;;5.07;3.03;;;;;;;3.52;62.12;102204.09;5053305;27;96824;-35
2022/03/04 08:52:10;;;;;;;5.15;2.63;;;;;;;3.57;61.89;102203.13;5053435;27;97866;-35
2022/03/04 08:54:35;;;;;;;3.40;1.83;;;;;;;3.58;62.44;102198.69;5053210;27;97270;-34
2022/03/04 08:57:01;;;;;;;7.57;2.47;;;;;;;3.65;62.18;102203.06;5053270;27;96602;-34
2022/03/04 08:59:26;;;;;;;4.03;2.55;;;;;;;3.65;61.71;102191.44;5053370;27;96856;-35
2022/03/04 09:01:51;;;;;;;5.65;3.30;;;;;;;3.68;62.03;102181.59;5052055;27;124194;-35
2022/03/04 09:04:17;;;;;;;4.90;1.55;;;;;;;3.75;62.14;102191.34;5033834;27;122439;-35
2022/03/04 09:06:44;;;;;;;7.10;3.53;;;;;;;3.83;62.14;102188.56;5047529;27;96736;-34
2022/03/04 09:09:09;;;;;;;1.02;0.77;;;;;;;3.93;61.48;102194.69;5014784;28;96575;-35
2022/03/04 09:11:35;;;;;;;6.07;2.88;;;;;;;3.96;61.16;102192.00;5032340;28;98820;-35
2022/03/04 09:14:01;;;;;;;5.93;2.70;;;;;;;4.06;60.62;102200.81;5032490;28;97805;-35
2022/03/04 09:16:28;;;;;;;7.70;4.32;;;;;;;4.08;60.70;102201.69;5032712;28;96522;-35
2022/03/04 09:18:53;;;;;;;1.65;1.20;;;;;;;4.07;60.03;102197.22;5032590;28;96884;-35
2022/03/04 09:21:18;;;;;;;4.00;2.08;;;;;;;4.14;59.90;102207.81;5031511;28;126593;-35
2022/03/04 09:23:44;;;;;;;4.40;1.77;;;;;;;4.20;60.05;102193.47;5032844;28;98119;-35
2022/03/04 09:26:09;;;;;;;6.85;3.42;;;;;;;4.40;59.81;102198.53;5031749;28;118051;-35
2022/03/04 09:28:34;;;;;;;4.50;2.03;;;;;;;4.44;60.02;102192.25;5032112;28;96849;-35
2022/03/04 09:31:00;;;;;;;2.85;1.38;;;;;;;4.61;59.94;102200.03;5031455;28;99587;-35
2022/03/04 09:33:25;;;;;;;5.18;2.55;;;;;;;4.61;59.36;102197.34;5031169;28;126800;-34
2022/03/04 09:35:50;;;;;;;4.03;1.88;;;;;;;4.68;59.30;102193.66;5032581;28;96460;-35
2022/03/04 09:38:16;;;;;;;3.78;2.20;;;;;;;4.81;58.62;102202.41;5032200;28;96998;-35
2022/03/04 09:40:41;;;;;;;4.88;2.20;;;;;;;4.88;58.29;102194.22;5032273;28;97921;-35
2022/03/04 09:43:07;;;;;;;3.70;1.55;;;;;;;5.06;58.08;102208.28;5031818;28;104555;-35
2022/03/04 09:45:34;;;;;;;10.05;4.32;;;;;;;5.20;57.57;102219.66;5013716;28;96637;-35
2022/03/04 09:48:02;;;;;;;7.65;3.78;;;;;;;5.36;57.75;102214.91;5014261;28;96831;-35
2022/03/04 09:50:28;;;;;;;4.85;2.97;;;;;;;5.60;57.40;102218.97;5013782;28;100931;-35
2022/03/04 09:52:54;;;;;;;6.70;3.17;;;;;;;5.82;56.97;102208.69;5031873;28;99121;-35
2022/03/04 09:55:19;;;;;;;8.35;4.53;;;;;;;6.17;56.89;102212.47;5031753;28;96453;-35
2022/03/04 09:57:44;;;;;;;7.85;3.78;;;;;;;6.40;55.34;102209.28;5032012;28;96728;-35
2022/03/04 10:00:13;;;;;;;10.60;3.67;;;;;;;6.61;54.26;102210.59;5031499;28;99567;-35
2022/03/04 10:02:39;;;;;;;11.23;3.70;;;;;;;6.80;55.00;102208.38;5013665;28;99240;-34
2022/03/04 10:05:05;;;;;;;10.75;2.70;;;;;;;7.04;54.17;102206.88;5032071;28;96513;-35
2022/03/04 10:07:41;;;;;;;8.25;4.63;;;;;;;7.41;54.22;102214.91;5042370;27;96751;-35
2022/03/04 10:10:12;;;;;;;10.07;4.68;;;;;;;7.72;53.53;102199.69;5033679;27;100886;-35
2022/03/04 10:12:49;;;;;;;7.63;3.45;;;;;;;7.98;52.13;102209.75;5033941;27;100711;-35
2022/03/04 10:15:16;;;;;;;7.65;3.38;;;;;;;8.03;53.20;102200.63;5052298;27;96679;-35
2022/03/04 10:18:10;;;;;;;6.65;2.67;;;;;;;8.17;51.80;102194.78;5033705;27;96831;-35
2022/03/04 10:20:39;;;;;;;11.18;5.20;;;;;;;8.48;51.29;102197.47;5033193;27;99825;-35
2022/03/04 10:23:22;;;;;;;7.95;3.55;;;;;;;8.42;51.67;102197.66;5033414;27;100967;-35
2022/03/04 10:25:52;;;;;;;5.88;3.60;;;;;;;8.42;50.41;102196.78;5052204;27;96431;-34
2022/03/04 10:28:20;;;;;;;10.60;4.22;;;;;;;8.68;51.00;102187.88;5033628;27;96945;-35
2022/03/04 10:30:48;;;;;;;7.90;3.47;;;;;;;8.99;51.06;102181.47;5033067;27;100776;-35
2022/03/04 10:33:22;;;;;;;9.90;3.45;;;;;;;9.10;49.59;102177.44;5016571;27;101245;-35
2022/03/04 10:36:05;;;;;;;9.88;4.22;;;;;;;9.13;49.45;102180.06;5033558;27;96601;-35
2022/03/04 10:38:32;;;;;;;7.57;3.60;;;;;;;9.19;49.50;102178.94;5052529;27;96776;-35
2022/03/04 10:40:57;;;;;;;7.93;3.80;;;;;;;9.42;49.78;102177.28;5016620;27;100903;-35
2022/03/04 10:43:31;;;;;;;11.60;4.65;;;;;;;9.68;49.05;102188.06;5051894;27;97904;-35
2022/03/04 10:46:05;;;;;;;7.47;3.72;;;;;;;9.85;48.82;102184.72;5016146;27;96456;-34
2022/03/04 10:48:31;;;;;;;15.07;5.00;;;;;;;9.94;49.03;102180.81;5033516;27;97042;-35
2022/03/04 10:50:58;;;;;;;8.30;4.35;;;;;;;9.90;48.19;102171.03;5051501;27;97875;-35
2022/03/04 10:53:27;;;;;;;10.57;4.20;;;;;;;9.91;48.54;102175.47;5033047;27;100560;-35
2022/03/04 10:56:06;;;;;;;8.23;4.15;;;;;;;9.92;47.40;102163.72;5033318;27;96609;-35
2022/03/04 10:58:34;;;;;;;8.05;3.97;;;;;;;10.19;48.02;102186.16;5035611;27;96686;-35
2022/03/04 11:01:02;;;;;;;9.75;5.22;;;;;;;10.28;48.64;102176.78;5054486;27;99320;-35
2022/03/04 11:03:30;;;;;;;7.78;3.85;;;;;;;10.50;48.21;102188.56;5036846;27;101307;-35
2022/03/04 11:06:01;;;;;;;8.20;3.83;;;;;;;10.73;47.52;102186.78;5036758;27;96604;-35
2022/03/04 11:08:27;;;;;;;13.63;4.72;;;;;;;10.96;47.06;102174.97;5017735;27;98858;-34
2022/03/04 11:10:54;;;;;;;8.85;4.53;;;;;;;11.14;46.60;102173.31;5015585;28;100712;-34
2022/03/04 11:13:20;;;;;;;9.93;4.60;;;;;;;11.38;47.96;102168.66;4999504;28;100872;-35
2022/03/04 11:15:47;;;;;;;11.70;5.03;;;;;;;11.52;45.74;102176.22;5034507;28;96605;-34
2022/03/04 11:18:15;;;;;;;9.63;4.03;;;;;;;11.50;45.63;102161.81;5035020;28;96779;-35
2022/03/04 11:20:43;;;;;;;10.15;4.07;;;;;;;11.43;45.33;102169.34;5016013;28;101079;-35
2022/03/04 11:23:10;;;;;;;9.77;4.65;;;;;;;11.50;46.00;102169.97;5034144;28;98862;-35
2022/03/04 11:25:41;;;;;;;9.05;4.25;;;;;;;11.50;45.50;102164.53;5016148;28;96642;-35